createdAt,value
2017-12-27T00:00:49.894Z,24.57
2017-12-27T00:03:24.149Z,17.73
2017-12-27T00:05:58.761Z,18.50
2017-12-27T00:08:32.592Z,15.47
2017-12-27T00:11:06.618Z,17.47
2017-12-27T00:13:40.507Z,21.73
2017-12-27T00:19:11.858Z,21.67
2017-12-27T00:21:45.676Z,18.60
2017-12-27T00:24:20.287Z,19.80
2017-12-27T00:26:54.325Z,18.93
2017-12-27T00:29:28.211Z,16.73
2017-12-27T00:31:57.097Z,18.63
2017-12-27T00:34:26.141Z,16.10
2017-12-27T00:36:54.428Z,21.17
2017-12-27T00:39:22.676Z,17.37
2017-12-27T00:41:50.909Z,20.13
2017-12-27T00:44:19.912Z,23.80
2017-12-27T00:46:48.922Z,21.80
2017-12-27T00:49:17.134Z,20.40
2017-12-27T00:51:45.384Z,22.67
2017-12-27T00:54:13.629Z,17.50
2017-12-27T00:56:42.637Z,23.27
2017-12-27T00:59:10.891Z,19.83
2017-12-27T01:01:39.141Z,30.20
2017-12-27T01:04:07.377Z,24.07
2017-12-27T01:06:35.610Z,17.37
2017-12-27T01:09:03.852Z,22.50
2017-12-27T01:11:32.079Z,23.30
2017-12-27T01:14:00.356Z,18.97
2017-12-27T01:16:28.610Z,21.40
2017-12-27T01:18:56.825Z,19.27
2017-12-27T01:21:25.070Z,18.00
2017-12-27T01:23:53.281Z,20.33
2017-12-27T01:26:21.485Z,19.30
2017-12-27T01:28:49.733Z,22.90
2017-12-27T01:31:17.948Z,19.80
2017-12-27T01:33:46.964Z,16.80
2017-12-27T01:36:15.949Z,16.90
2017-12-27T01:38:44.933Z,22.20
2017-12-27T01:41:13.944Z,18.27
2017-12-27T01:43:42.197Z,15.53
2017-12-27T01:46:11.205Z,18.07
2017-12-27T01:48:39.526Z,18.57
2017-12-27T01:51:07.757Z,16.63
2017-12-27T01:53:36.749Z,18.40
2017-12-27T01:56:05.765Z,18.70
2017-12-27T01:58:34.019Z,18.70
2017-12-27T02:01:03.013Z,17.07
2017-12-27T02:03:32.025Z,17.57
2017-12-27T02:06:00.237Z,16.37
2017-12-27T02:08:29.292Z,14.80
2017-12-27T02:10:57.621Z,18.47
2017-12-27T02:13:25.932Z,19.17
2017-12-27T02:15:54.928Z,17.03
2017-12-27T02:18:23.912Z,17.80
2017-12-27T02:20:52.923Z,18.07
2017-12-27T02:23:21.137Z,18.23
2017-12-27T02:25:49.433Z,18.00
2017-12-27T02:28:17.652Z,16.50
2017-12-27T02:30:45.884Z,16.20
2017-12-27T02:33:14.124Z,19.43
2017-12-27T02:35:42.376Z,16.10
2017-12-27T02:38:11.357Z,16.50
2017-12-27T02:40:39.581Z,15.67
2017-12-27T02:43:07.918Z,17.83
2017-12-27T02:45:36.120Z,16.67
2017-12-27T02:48:04.324Z,18.80
2017-12-27T02:50:32.557Z,20.47
2017-12-27T02:53:01.205Z,19.30
2017-12-27T02:55:29.454Z,18.90
2017-12-27T02:57:57.705Z,22.80
2017-12-27T03:00:25.966Z,19.93
2017-12-27T03:02:54.179Z,23.60
2017-12-27T03:05:22.431Z,17.43
2017-12-27T03:07:50.657Z,31.53
2017-12-27T03:10:18.888Z,22.40
2017-12-27T03:12:47.133Z,26.20
2017-12-27T03:15:15.381Z,31.50
2017-12-27T03:17:43.652Z,29.17
2017-12-27T03:20:12.637Z,20.70
2017-12-27T03:22:41.659Z,19.73
2017-12-27T03:25:10.109Z,19.63
2017-12-27T03:27:38.382Z,19.33
2017-12-27T03:30:07.374Z,17.80
2017-12-27T03:32:36.384Z,19.20
2017-12-27T03:35:05.362Z,18.50
2017-12-27T03:37:34.346Z,17.63
2017-12-27T03:40:03.385Z,18.70
2017-12-27T03:42:31.831Z,18.40
2017-12-27T03:45:00.813Z,17.97
2017-12-27T03:47:29.825Z,18.50
2017-12-27T03:49:58.806Z,16.73
2017-12-27T03:52:27.818Z,14.60
2017-12-27T03:54:56.074Z,19.77
2017-12-27T03:57:25.094Z,14.37
2017-12-27T03:59:53.324Z,16.00
2017-12-27T04:02:21.548Z,15.10
2017-12-27T04:04:49.804Z,12.93
2017-12-27T04:07:18.048Z,14.93
2017-12-27T04:09:46.550Z,14.83
2017-12-27T04:12:15.532Z,12.20
2017-12-27T04:14:44.838Z,15.13
2017-12-27T04:17:13.848Z,15.30
2017-12-27T04:19:42.072Z,13.83
2017-12-27T04:22:10.332Z,12.43
2017-12-27T04:24:38.615Z,13.77
2017-12-27T04:27:06.832Z,12.20
2017-12-27T04:29:36.138Z,10.93
2017-12-27T04:32:04.378Z,13.23
2017-12-27T04:34:32.892Z,12.97
2017-12-27T04:37:01.129Z,12.93
2017-12-27T04:39:30.150Z,12.63
2017-12-27T04:41:59.153Z,13.47
2017-12-27T04:44:28.133Z,12.50
2017-12-27T04:46:56.368Z,16.10
2017-12-27T04:49:24.578Z,14.93
2017-12-27T04:51:53.591Z,13.57
2017-12-27T04:54:22.576Z,12.97
2017-12-27T04:56:51.569Z,14.33
2017-12-27T04:59:20.581Z,14.57
2017-12-27T05:01:48.831Z,13.80
2017-12-27T05:04:17.841Z,13.80
2017-12-27T05:06:46.060Z,14.90
2017-12-27T05:09:14.293Z,14.10
2017-12-27T05:11:42.533Z,14.67
2017-12-27T05:14:10.768Z,12.80
2017-12-27T05:16:39.002Z,14.43
2017-12-27T05:19:07.985Z,17.63
2017-12-27T05:21:36.244Z,10.80
2017-12-27T05:24:04.469Z,14.83
2017-12-27T05:26:32.821Z,14.63
2017-12-27T05:29:01.006Z,15.17
2017-12-27T05:31:29.988Z,16.23
2017-12-27T05:33:59.001Z,16.43
2017-12-27T05:36:27.213Z,16.77
2017-12-27T05:38:55.433Z,16.60
2017-12-27T05:41:24.428Z,16.70
2017-12-27T05:43:52.652Z,19.43
2017-12-27T05:46:20.885Z,18.63
2017-12-27T05:48:49.132Z,17.63
2017-12-27T05:51:17.351Z,15.70
2017-12-27T05:53:45.592Z,15.30
2017-12-27T05:56:14.585Z,14.67
2017-12-27T05:58:43.607Z,16.87
2017-12-27T06:01:11.817Z,16.10
2017-12-27T06:03:40.045Z,15.90
2017-12-27T06:06:08.285Z,16.47
2017-12-27T06:08:36.505Z,13.93
2017-12-27T06:11:04.745Z,14.53
2017-12-27T06:13:33.725Z,12.77
2017-12-27T06:16:02.729Z,14.80
2017-12-27T06:18:32.034Z,17.10
2017-12-27T06:21:01.039Z,14.30
2017-12-27T06:23:29.288Z,14.77
2017-12-27T06:25:57.500Z,14.60
2017-12-27T06:28:25.717Z,15.73
2017-12-27T06:30:54.768Z,15.70
2017-12-27T06:33:23.007Z,16.40
2017-12-27T06:35:51.212Z,17.33
2017-12-27T06:38:19.454Z,16.63
2017-12-27T06:40:48.476Z,13.40
2017-12-27T06:43:16.701Z,17.90
2017-12-27T06:45:44.949Z,16.60
2017-12-27T06:48:13.209Z,18.93
2017-12-27T06:51:00.655Z,14.23
2017-12-27T06:56:27.317Z,13.90
2017-12-27T06:58:55.539Z,14.53
2017-12-27T07:01:23.762Z,10.80
2017-12-27T07:03:51.993Z,12.50
2017-12-27T07:06:20.970Z,12.87
2017-12-27T07:08:49.957Z,11.60
2017-12-27T07:11:18.178Z,12.13
2017-12-27T07:13:46.384Z,14.23
2017-12-27T07:16:14.621Z,12.07
2017-12-27T07:18:43.681Z,12.60
2017-12-27T07:21:11.902Z,14.00
2017-12-27T07:23:40.097Z,9.83
2017-12-27T07:26:08.308Z,13.57
2017-12-27T07:28:36.518Z,12.77
2017-12-27T07:31:04.751Z,12.80
2017-12-27T07:33:32.973Z,9.73
2017-12-27T07:36:01.181Z,15.90
2017-12-27T07:38:29.407Z,13.27
2017-12-27T07:40:57.616Z,16.27
2017-12-27T07:43:25.833Z,12.90
2017-12-27T07:45:54.253Z,15.97
2017-12-27T07:48:22.556Z,14.03
2017-12-27T07:50:50.761Z,14.83
2017-12-27T07:53:18.997Z,12.97
2017-12-27T07:55:47.212Z,13.90
2017-12-27T07:58:16.186Z,12.60
2017-12-27T08:00:44.421Z,13.10
2017-12-27T08:03:12.619Z,11.00
2017-12-27T08:05:40.830Z,14.77
2017-12-27T08:08:09.796Z,14.30
2017-12-27T08:10:38.024Z,17.70
2017-12-27T08:13:06.241Z,12.37
2017-12-27T08:15:34.458Z,13.67
2017-12-27T08:18:03.434Z,13.93
2017-12-27T08:20:32.451Z,17.03
2017-12-27T08:23:00.672Z,15.53
2017-12-27T08:25:28.929Z,15.17
2017-12-27T08:27:57.150Z,14.87
2017-12-27T08:30:25.357Z,13.93
2017-12-27T08:32:53.570Z,13.87
2017-12-27T08:35:21.804Z,15.73
2017-12-27T08:37:50.185Z,15.83
2017-12-27T08:40:19.154Z,13.83
2017-12-27T08:42:48.158Z,15.47
2017-12-27T08:45:16.613Z,16.33
2017-12-27T08:47:45.113Z,12.07
2017-12-27T08:50:13.332Z,16.83
2017-12-27T08:52:41.538Z,12.93
2017-12-27T08:55:09.765Z,13.23
2017-12-27T08:57:37.972Z,12.90
2017-12-27T09:00:06.190Z,16.93
2017-12-27T09:02:34.396Z,17.83
2017-12-27T09:05:02.641Z,13.80
2017-12-27T09:07:30.889Z,14.40
2017-12-27T09:09:59.889Z,18.77
2017-12-27T09:12:28.874Z,15.63
2017-12-27T09:14:57.096Z,20.00
2017-12-27T09:17:25.310Z,18.33
2017-12-27T09:19:53.537Z,20.20
2017-12-27T09:22:21.745Z,12.50
2017-12-27T09:24:50.776Z,15.00
2017-12-27T09:27:19.749Z,18.03
2017-12-27T09:29:47.956Z,16.37
2017-12-27T09:32:16.183Z,13.87
2017-12-27T09:34:44.403Z,12.90
2017-12-27T09:37:13.379Z,13.30
2017-12-27T09:39:41.602Z,17.17
2017-12-27T09:42:09.822Z,15.00
2017-12-27T09:44:38.801Z,13.87
2017-12-27T09:47:07.033Z,13.33
2017-12-27T09:49:35.294Z,15.93
2017-12-27T09:52:03.526Z,16.73
2017-12-27T09:54:31.746Z,15.10
2017-12-27T09:57:00.007Z,16.43
2017-12-27T09:59:28.570Z,12.20
2017-12-27T10:01:56.783Z,18.40
2017-12-27T10:04:25.024Z,19.10
2017-12-27T10:06:54.004Z,21.80
2017-12-27T10:09:22.236Z,19.90
2017-12-27T10:11:50.451Z,17.77
2017-12-27T10:14:18.677Z,18.80
2017-12-27T10:16:46.890Z,11.10
2017-12-27T10:19:15.124Z,23.33
2017-12-27T10:21:43.801Z,13.17
2017-12-27T10:24:12.050Z,15.30
2017-12-27T10:26:40.241Z,11.57
2017-12-27T10:29:08.477Z,16.40
2017-12-27T10:31:36.716Z,12.40
2017-12-27T10:34:04.942Z,13.00
2017-12-27T10:36:33.172Z,15.47
2017-12-27T10:39:01.385Z,13.23
2017-12-27T10:41:30.382Z,14.53
2017-12-27T10:43:59.354Z,15.50
2017-12-27T10:46:27.570Z,18.50
2017-12-27T10:48:55.789Z,18.90
2017-12-27T10:51:24.041Z,16.00
2017-12-27T10:53:52.270Z,16.90
2017-12-27T10:56:21.258Z,15.97
2017-12-27T10:58:49.487Z,17.93
2017-12-27T11:01:17.711Z,18.23
2017-12-27T11:03:46.705Z,16.30
2017-12-27T11:06:15.693Z,20.47
2017-12-27T11:08:43.944Z,19.37
2017-12-27T11:11:13.068Z,18.90
2017-12-27T11:13:41.288Z,23.70
2017-12-27T11:16:09.517Z,18.77
2017-12-27T11:18:37.757Z,19.03
2017-12-27T11:21:05.985Z,18.60
2017-12-27T11:23:34.225Z,18.97
2017-12-27T11:26:02.442Z,26.23
2017-12-27T11:28:30.664Z,20.73
2017-12-27T11:30:58.889Z,24.30
2017-12-27T11:33:27.100Z,17.70
2017-12-27T11:35:56.218Z,18.33
2017-12-27T11:38:24.433Z,20.47
2017-12-27T11:40:52.661Z,19.07
2017-12-27T11:43:20.879Z,20.90
2017-12-27T11:45:49.116Z,22.60
2017-12-27T11:48:18.477Z,16.50
2017-12-27T11:50:47.551Z,15.70
2017-12-27T11:53:15.775Z,15.43
2017-12-27T11:55:43.986Z,17.57
2017-12-27T11:58:12.996Z,17.57
2017-12-27T12:00:41.209Z,18.90
2017-12-27T12:03:09.443Z,19.77
2017-12-27T12:05:37.665Z,13.90
2017-12-27T12:08:05.895Z,15.93
2017-12-27T12:10:34.109Z,16.30
2017-12-27T12:13:02.332Z,19.50
2017-12-27T12:15:30.541Z,21.97
2017-12-27T12:17:58.772Z,16.07
2017-12-27T12:20:27.749Z,17.60
2017-12-27T12:22:56.035Z,19.37
2017-12-27T12:25:24.303Z,16.00
2017-12-27T12:27:52.577Z,11.87
2017-12-27T12:30:20.790Z,17.10
2017-12-27T12:32:49.002Z,17.10
2017-12-27T12:35:17.335Z,22.13
2017-12-27T12:37:45.614Z,20.47
2017-12-27T12:40:13.833Z,19.53
2017-12-27T12:42:42.054Z,23.50
2017-12-27T12:45:10.309Z,19.17
2017-12-27T12:47:38.522Z,19.07
2017-12-27T12:50:06.722Z,18.23
2017-12-27T12:52:34.963Z,15.73
2017-12-27T12:55:03.167Z,15.50
2017-12-27T12:57:31.405Z,18.13
2017-12-27T12:59:59.645Z,19.77
2017-12-27T13:02:27.857Z,22.80
2017-12-27T13:04:56.076Z,22.20
2017-12-27T13:07:24.298Z,14.40
2017-12-27T13:09:52.512Z,17.87
2017-12-27T13:12:20.776Z,20.47
2017-12-27T13:14:48.981Z,21.47
2017-12-27T13:17:17.222Z,15.23
2017-12-27T13:19:45.437Z,17.97
2017-12-27T13:22:13.679Z,17.60
2017-12-27T13:24:41.874Z,16.80
2017-12-27T13:27:10.089Z,21.07
2017-12-27T13:29:38.653Z,19.43
2017-12-27T13:32:06.893Z,16.90
2017-12-27T13:34:35.115Z,21.07
2017-12-27T13:37:03.348Z,16.67
2017-12-27T13:39:31.598Z,18.00
2017-12-27T13:41:59.814Z,19.53
2017-12-27T13:44:28.049Z,20.30
2017-12-27T13:46:56.365Z,17.53
2017-12-27T13:49:25.380Z,15.47
2017-12-27T13:51:54.156Z,14.93
2017-12-27T13:54:22.392Z,19.60
2017-12-27T13:56:50.628Z,18.30
2017-12-27T13:59:18.863Z,10.60
2017-12-27T14:01:47.084Z,11.37
2017-12-27T14:04:15.304Z,11.63
2017-12-27T14:06:43.528Z,16.33
2017-12-27T14:09:11.773Z,12.50
2017-12-27T14:11:40.758Z,11.13
2017-12-27T14:14:08.980Z,13.40
2017-12-27T14:16:37.188Z,14.57
2017-12-27T14:19:06.214Z,16.50
2017-12-27T14:21:35.189Z,15.60
2017-12-27T14:24:03.447Z,14.50
2017-12-27T14:26:32.498Z,13.50
2017-12-27T14:29:00.729Z,18.40
2017-12-27T14:31:29.008Z,14.87
2017-12-27T14:33:57.232Z,13.53
2017-12-27T14:36:25.442Z,13.53
2017-12-27T14:38:54.774Z,16.63
2017-12-27T14:41:23.777Z,16.77
2017-12-27T14:43:51.975Z,16.30
2017-12-27T14:46:20.205Z,18.07
2017-12-27T14:48:48.425Z,18.20
2017-12-27T14:51:16.652Z,16.70
2017-12-27T14:53:52.624Z,16.47
2017-12-27T14:56:21.605Z,17.70
2017-12-27T14:58:50.592Z,14.00
2017-12-27T15:01:18.804Z,21.10
2017-12-27T15:03:47.025Z,18.20
2017-12-27T15:06:16.048Z,18.73
2017-12-27T15:08:45.041Z,16.50
2017-12-27T15:11:14.025Z,14.77
2017-12-27T15:13:42.329Z,13.07
2017-12-27T15:16:10.569Z,13.97
2017-12-27T15:18:38.807Z,17.57
2017-12-27T15:21:07.028Z,22.20
2017-12-27T15:23:36.329Z,20.90
2017-12-27T15:26:04.549Z,21.13
2017-12-27T15:28:32.761Z,20.80
2017-12-27T15:31:01.008Z,14.33
2017-12-27T15:33:30.053Z,15.40
2017-12-27T15:35:59.044Z,16.50
2017-12-27T15:38:28.039Z,16.40
2017-12-27T15:40:57.062Z,18.90
2017-12-27T15:43:25.333Z,19.40
2017-12-27T15:45:53.695Z,18.83
2017-12-27T15:48:21.930Z,18.70
2017-12-27T15:50:50.162Z,15.13
2017-12-27T15:53:18.372Z,15.40
2017-12-27T15:55:46.589Z,20.80
2017-12-27T15:58:14.816Z,16.57
2017-12-27T16:00:43.052Z,22.03
2017-12-27T16:03:11.610Z,15.67
2017-12-27T16:05:40.593Z,19.00
2017-12-27T16:08:08.840Z,18.23
2017-12-27T16:10:38.592Z,18.43
2017-12-27T16:13:07.596Z,19.33
2017-12-27T16:15:36.581Z,19.37
2017-12-27T16:18:04.817Z,21.00
2017-12-27T16:20:33.068Z,18.33
2017-12-27T16:23:01.623Z,24.10
2017-12-27T16:25:29.997Z,19.80
2017-12-27T16:27:58.972Z,19.77
2017-12-27T16:30:28.023Z,21.67
2017-12-27T16:32:56.210Z,17.50
2017-12-27T16:35:24.434Z,16.17
2017-12-27T16:37:52.661Z,13.47
2017-12-27T16:40:20.892Z,16.07
2017-12-27T16:42:49.136Z,20.07
2017-12-27T16:45:18.191Z,16.30
2017-12-27T16:47:47.124Z,18.50
2017-12-27T16:50:16.126Z,19.60
2017-12-27T16:52:45.114Z,17.60
2017-12-27T16:55:14.106Z,21.03
2017-12-27T16:57:43.475Z,20.57
2017-12-27T17:00:12.088Z,20.37
2017-12-27T17:02:41.184Z,21.23
2017-12-27T17:05:10.160Z,21.90
2017-12-27T17:07:38.386Z,23.83
2017-12-27T17:10:06.591Z,22.27
2017-12-27T17:12:34.813Z,27.20
2017-12-27T17:15:03.025Z,24.97
2017-12-27T17:17:31.246Z,22.83
2017-12-27T17:19:59.470Z,22.33
2017-12-27T17:22:27.696Z,26.60
2017-12-27T17:24:55.941Z,23.60
2017-12-27T17:27:24.181Z,26.80
2017-12-27T17:29:52.727Z,30.63
2017-12-27T17:32:20.944Z,30.73
2017-12-27T17:34:49.145Z,23.20
2017-12-27T17:37:17.379Z,31.00
2017-12-27T17:39:45.597Z,31.97
2017-12-27T17:42:14.629Z,17.23
2017-12-27T17:44:43.028Z,20.00
2017-12-27T17:47:11.233Z,15.37
2017-12-27T17:49:39.457Z,18.07
2017-12-27T17:52:07.686Z,14.47
2017-12-27T17:54:35.923Z,19.50
2017-12-27T17:57:04.469Z,22.97
2017-12-27T18:01:54.722Z,19.73
2017-12-27T18:04:22.934Z,19.87
2017-12-27T18:06:51.185Z,24.17
2017-12-27T18:09:19.407Z,21.17
2017-12-27T18:11:47.638Z,18.70
2017-12-27T18:14:15.893Z,20.37
2017-12-27T18:16:44.109Z,17.67
2017-12-27T18:19:12.349Z,18.50
2017-12-27T18:21:40.599Z,21.13
2017-12-27T18:24:11.116Z,18.13
2017-12-27T18:26:39.401Z,18.60
2017-12-27T18:29:07.668Z,20.67
2017-12-27T18:31:36.655Z,20.67
2017-12-27T18:34:06.189Z,18.57
2017-12-27T18:36:34.397Z,23.37
2017-12-27T18:39:02.625Z,18.90
2017-12-27T18:41:30.863Z,19.53
2017-12-27T18:43:59.078Z,17.30
2017-12-27T18:46:27.308Z,19.93
2017-12-27T18:48:55.537Z,19.23
2017-12-27T18:51:23.780Z,17.93
2017-12-27T18:53:52.787Z,17.83
2017-12-27T18:56:21.033Z,20.17
2017-12-27T18:58:49.470Z,20.30
2017-12-27T19:01:17.682Z,18.05
2017-12-27T19:03:45.900Z,18.17
2017-12-27T19:06:14.125Z,23.30
2017-12-27T19:08:42.442Z,19.13
2017-12-27T19:14:08.767Z,19.30
2017-12-27T19:16:37.002Z,22.97
2017-12-27T19:19:05.629Z,19.00
2017-12-27T19:21:34.618Z,19.60
2017-12-27T19:24:02.874Z,19.43
2017-12-27T19:26:31.093Z,25.53
2017-12-27T19:28:59.351Z,18.17
2017-12-27T19:31:27.630Z,16.00
2017-12-27T19:33:55.853Z,23.27
2017-12-27T19:36:24.157Z,19.30
2017-12-27T19:38:52.397Z,20.97
2017-12-27T19:41:20.838Z,21.60
2017-12-27T19:43:49.099Z,19.10
2017-12-27T19:46:18.127Z,16.20
2017-12-27T19:48:46.403Z,18.03
2017-12-27T19:51:14.674Z,19.63
2017-12-27T19:53:42.958Z,19.70
2017-12-27T19:56:11.181Z,18.07
2017-12-27T19:58:39.436Z,16.60
2017-12-27T20:01:07.673Z,25.10
2017-12-27T20:03:35.950Z,20.43
2017-12-27T20:06:04.181Z,18.33
2017-12-27T20:08:32.676Z,17.87
2017-12-27T20:11:00.913Z,20.00
2017-12-27T20:13:29.298Z,17.57
2017-12-27T20:15:57.562Z,17.50
2017-12-27T20:18:25.825Z,17.30
2017-12-27T20:20:54.057Z,18.77
2017-12-27T20:23:22.281Z,18.90
2017-12-27T20:25:50.549Z,21.00
2017-12-27T20:28:19.081Z,21.60
2017-12-27T20:30:48.081Z,20.17
2017-12-27T20:33:17.073Z,18.90
2017-12-27T20:35:45.338Z,20.07
2017-12-27T20:38:13.563Z,26.17
2017-12-27T20:40:42.098Z,20.70
2017-12-27T20:43:10.357Z,21.13
2017-12-27T20:45:39.361Z,22.53
2017-12-27T20:48:07.626Z,22.93
2017-12-27T20:50:35.853Z,22.30
2017-12-27T20:53:04.112Z,21.73
2017-12-27T20:55:32.328Z,18.83
2017-12-27T20:58:00.547Z,19.90
2017-12-27T21:00:28.784Z,19.67
2017-12-27T21:02:57.043Z,22.03
2017-12-27T21:05:25.266Z,19.10
2017-12-27T21:07:54.258Z,18.30
2017-12-27T21:10:23.241Z,18.37
2017-12-27T21:12:51.499Z,16.47
2017-12-27T21:15:20.517Z,22.17
2017-12-27T21:17:48.726Z,19.37
2017-12-27T21:20:16.941Z,28.20
2017-12-27T21:22:45.170Z,18.83
2017-12-27T21:25:13.404Z,23.30
2017-12-27T21:27:41.669Z,20.47
2017-12-27T21:30:09.915Z,20.07
2017-12-27T21:32:38.150Z,21.40
2017-12-27T21:35:06.414Z,23.53
2017-12-27T21:37:34.633Z,17.93
2017-12-27T21:40:02.907Z,20.47
2017-12-27T21:42:31.140Z,19.80
2017-12-27T21:44:59.397Z,17.70
2017-12-27T21:47:34.237Z,18.87
2017-12-27T21:50:03.295Z,20.83
2017-12-27T21:52:31.510Z,22.90
2017-12-27T21:55:00.004Z,20.87
2017-12-27T21:57:29.000Z,27.33
2017-12-27T22:00:02.873Z,26.40
2017-12-27T22:02:31.125Z,25.33
2017-12-27T22:04:59.370Z,26.90
2017-12-27T22:07:27.635Z,28.47
2017-12-27T22:09:55.865Z,28.23
2017-12-27T22:12:24.106Z,23.83
2017-12-27T22:14:52.448Z,22.27
2017-12-27T22:17:20.652Z,26.53
2017-12-27T22:19:49.189Z,20.43
2017-12-27T22:22:18.190Z,23.43
2017-12-27T22:24:47.197Z,25.23
2017-12-27T22:27:16.590Z,20.97
2017-12-27T22:29:44.801Z,23.60
2017-12-27T22:32:13.035Z,23.30
2017-12-27T22:34:42.058Z,22.50
2017-12-27T22:37:10.302Z,20.40
2017-12-27T22:39:39.601Z,21.90
2017-12-27T22:42:08.589Z,22.17
2017-12-27T22:44:37.611Z,23.10
2017-12-27T22:47:06.057Z,20.47
2017-12-27T22:49:34.302Z,19.60
2017-12-27T22:52:02.537Z,23.13
2017-12-27T22:54:30.780Z,26.17
2017-12-27T22:56:59.041Z,23.07
2017-12-27T22:59:27.260Z,24.10
2017-12-27T23:01:55.506Z,22.90
2017-12-27T23:04:23.716Z,22.13
2017-12-27T23:06:51.953Z,20.50
2017-12-27T23:09:20.182Z,23.87
2017-12-27T23:11:48.390Z,29.10
2017-12-27T23:14:16.617Z,25.77
2017-12-27T23:16:44.853Z,22.87
2017-12-27T23:19:13.866Z,21.37
2017-12-27T23:21:42.094Z,21.00
2017-12-27T23:24:10.342Z,20.57
2017-12-27T23:26:38.887Z,21.00
2017-12-27T23:29:07.125Z,21.60
2017-12-27T23:31:35.346Z,21.00
2017-12-27T23:34:03.593Z,22.37
2017-12-27T23:36:32.600Z,17.83
2017-12-27T23:39:01.597Z,17.30
2017-12-27T23:41:30.577Z,19.33
2017-12-27T23:43:59.566Z,19.00
2017-12-27T23:46:28.586Z,19.53
2017-12-27T23:48:57.573Z,22.73
2017-12-27T23:51:25.862Z,17.83
2017-12-27T23:53:54.109Z,18.10
2017-12-27T23:56:23.124Z,20.03
2017-12-27T23:58:52.112Z,22.87
